logo
Search for airport 
image banner adimage banner adimage banner ad
image banner ad

EHM005 - Beverwijk

Located in , Netherlands

ICAO - , IATA -

Data provided by Airmate  

General information

Coordinates: N52°28'51" E4°41'47"
Elevation is feet MSL.
 
View others Airports in Noord-Holland

Operational data

Special qualification required
Current time UTC:
Current local time:
Weather at : EHAM - Amsterdam/Schiphol ( 20 km )
METAR: EHAM 260825Z 04016KT 010V080 9999 BKN012 05/03 Q1004 BECMG BKN015
TAF: TAF EHAM 260511Z 2606/2712 05017KT 9999 SCT045 BECMG 2606/2609 04018G28KT PROB30 TEMPO 2607/2612 7000 RA BKN012 BECMG 2614/2617 03015KT BECMG 2621/2624 03009KT BECMG 2709/2712 08007KT
View NOTAMs / SUP AIP / TFR affecting this airport [VIEW]
Communications frequencies: [VIEW]

Runways:

Airport contact information

Address: Netherlands

Satellite view of EHM005